Saint Leo, Florida
Current Conditions -  °F | °C
As of 7:55 AM on Monday 22 Dec 2014 (Local Time) from KZPH Reporting Station
Haze Haze  
Wind Chill: 63°   Ceiling: 3400
Heat Index: 63°   Visibility: 4mi
Dew Point: 63°   Wind: 0mph
Humidity: 100%   Direction: NA
Pressure: 30.02"   Gusts: NA
Location:  28.34°N, 82.26°W
Report Text: KZPH 221255Z AUTO 00000KT 4SM BR BKN034 BKN120 17/17 A3002 RMK AO2
Loading
Personal Weather Stations






























Interactive Weather Map New forecast layout! Learn more

10-Day Weather Forecast

Advertisements
Track Severe Weather on mobile